Time;durP1;ratioP1;P1;durP2;ratioP2;P2;SDS_P1;SDS_P2;PMS_P1;PMS_P2;Temp;Humidity;BMP_temperature;BMP_pressure;BME280_temperature;BME280_humidity;BME280_pressure;Samples;Min_cycle;Max_cycle;Signal;HPM_P1;HPM_P2
2022/04/11 00:01:00;;;;;;;15.77;9.70;;;1.10;99.90;;;;;;5075200;28;20023;-73
2022/04/11 00:03:26;;;;;;;14.63;9.13;;;1.10;99.90;;;;;;5093117;28;20103;-72
2022/04/11 00:05:51;;;;;;;15.82;10.02;;;1.10;99.90;;;;;;5093094;28;20071;-72
2022/04/11 00:08:19;;;;;;;16.60;10.45;;;1.10;99.90;;;;;;5093086;28;20059;-72
2022/04/11 00:10:45;;;;;;;18.50;9.90;;;1.10;99.90;;;;;;5092994;28;20470;-72
2022/04/11 00:13:11;;;;;;;15.95;9.07;;;1.10;99.90;;;;;;5058271;28;20030;-73
2022/04/11 00:15:39;;;;;;;15.82;9.30;;;1.10;99.90;;;;;;5074855;28;20031;-73
2022/04/11 00:18:05;;;;;;;17.23;10.15;;;1.00;99.90;;;;;;5074817;28;20067;-72
2022/04/11 00:20:30;;;;;;;21.50;10.45;;;1.00;99.90;;;;;;5092929;28;20048;-73
2022/04/11 00:22:56;;;;;;;14.75;8.77;;;1.00;99.90;;;;;;5074918;28;20432;-73
2022/04/11 00:25:22;;;;;;;13.38;9.45;;;1.00;99.90;;;;;;5092978;28;20024;-72
2022/04/11 00:27:47;;;;;;;20.60;10.40;;;1.00;99.90;;;;;;5092902;28;20031;-72
2022/04/11 00:30:13;;;;;;;17.33;9.13;;;0.90;99.90;;;;;;5092905;28;20033;-73
2022/04/11 00:32:40;;;;;;;16.70;9.55;;;0.90;99.90;;;;;;5074802;28;20095;-72
2022/04/11 00:35:07;;;;;;;14.60;9.27;;;0.90;99.90;;;;;;5092792;28;20097;-72
2022/04/11 00:37:33;;;;;;;14.07;9.55;;;0.90;99.90;;;;;;5074645;28;20498;-73
2022/04/11 00:39:59;;;;;;;14.13;9.45;;;0.90;99.90;;;;;;5074764;28;20134;-72
2022/04/11 00:42:27;;;;;;;15.65;8.98;;;0.90;99.90;;;;;;5074315;28;20078;-73
2022/04/11 00:44:53;;;;;;;12.70;8.38;;;0.80;99.90;;;;;;5092652;28;20478;-72
2022/04/11 00:47:18;;;;;;;14.10;8.85;;;0.80;99.90;;;;;;5074662;28;20028;-72
2022/04/11 00:49:46;;;;;;;14.43;8.90;;;0.80;99.90;;;;;;5094648;28;20422;-72
2022/04/11 00:52:12;;;;;;;12.75;8.52;;;0.80;99.90;;;;;;5061548;28;20024;-73
2022/04/11 00:54:39;;;;;;;21.33;8.95;;;0.80;99.90;;;;;;5078363;28;20026;-72
2022/04/11 00:57:06;;;;;;;14.35;8.82;;;0.70;99.90;;;;;;5061720;28;20202;-72
2022/04/11 00:59:32;;;;;;;14.40;9.10;;;0.70;99.90;;;;;;5078201;28;20020;-72
2022/04/11 01:02:01;;;;;;;13.13;9.15;;;0.70;99.90;;;;;;5096083;28;20030;-73
2022/04/11 01:04:27;;;;;;;15.25;8.55;;;0.60;99.90;;;;;;5077927;28;20063;-73
2022/04/11 01:06:55;;;;;;;12.52;8.55;;;0.70;99.90;;;;;;5096108;28;20040;-72
2022/04/11 01:09:22;;;;;;;13.60;8.68;;;0.60;99.90;;;;;;5096082;28;20359;-72
2022/04/11 01:11:47;;;;;;;18.77;8.88;;;0.60;99.90;;;;;;5077760;28;20035;-72
2022/04/11 01:14:13;;;;;;;14.20;8.98;;;0.60;99.90;;;;;;5061120;28;20028;-72
2022/04/11 01:16:38;;;;;;;13.95;9.27;;;0.70;99.90;;;;;;5077792;28;20410;-72
2022/04/11 01:19:04;;;;;;;15.27;9.13;;;0.70;99.90;;;;;;5077769;28;20108;-72
2022/04/11 01:21:31;;;;;;;13.35;9.63;;;0.70;99.90;;;;;;5060904;28;20440;-72
2022/04/11 01:23:57;;;;;;;12.07;8.88;;;0.70;99.90;;;;;;5095710;28;20382;-72
2022/04/11 01:26:23;;;;;;;12.82;8.55;;;0.70;99.90;;;;;;5077673;28;20024;-72
2022/04/11 01:28:49;;;;;;;14.40;8.35;;;0.70;99.90;;;;;;5077643;28;20411;-72
2022/04/11 01:31:16;;;;;;;14.73;9.00;;;0.70;99.90;;;;;;5077580;28;20057;-73
2022/04/11 01:33:41;;;;;;;14.05;8.50;;;0.60;99.90;;;;;;5095505;28;20024;-72
2022/04/11 01:36:07;;;;;;;14.40;8.80;;;0.60;99.90;;;;;;5095493;28;20081;-72
2022/04/11 01:38:32;;;;;;;16.20;9.68;;;0.60;99.90;;;;;;5095460;28;20077;-72
2022/04/11 01:40:59;;;;;;;13.27;9.40;;;0.70;99.90;;;;;;5060555;28;20482;-72
2022/04/11 01:43:25;;;;;;;13.75;8.80;;;0.70;99.90;;;;;;5095136;28;20409;-72
2022/04/11 01:45:51;;;;;;;16.17;9.88;;;0.80;99.90;;;;;;5077152;28;20107;-72
2022/04/11 01:48:17;;;;;;;12.77;8.82;;;0.70;99.90;;;;;;5095264;28;20059;-72
2022/04/11 01:50:43;;;;;;;14.60;9.75;;;0.70;99.90;;;;;;5077234;28;20427;-72
2022/04/11 01:53:18;;;;;;;15.70;9.25;;;0.70;99.90;;;;;;5077134;28;20044;-72
2022/04/11 01:55:43;;;;;;;19.20;9.27;;;0.60;99.90;;;;;;5095147;28;20477;-72
2022/04/11 01:58:10;;;;;;;15.90;9.52;;;0.60;99.90;;;;;;5060223;28;20024;-72
2022/04/11 02:00:36;;;;;;;15.80;8.82;;;0.60;99.90;;;;;;5076903;28;20075;-72
2022/04/11 02:03:04;;;;;;;19.05;10.20;;;0.60;99.90;;;;;;5094915;28;20031;-72
2022/04/11 02:05:29;;;;;;;16.88;10.10;;;0.60;99.90;;;;;;5094925;28;20501;-72
2022/04/11 02:07:57;;;;;;;16.55;10.52;;;0.60;99.90;;;;;;5076797;28;20024;-72
2022/04/11 02:10:23;;;;;;;16.02;10.00;;;0.60;99.90;;;;;;5094851;28;20145;-72
2022/04/11 02:12:49;;;;;;;14.50;9.38;;;0.60;99.90;;;;;;5060083;28;20118;-73
2022/04/11 02:15:16;;;;;;;14.18;9.57;;;0.60;99.90;;;;;;5076784;28;20482;-72
2022/04/11 02:17:42;;;;;;;20.35;9.45;;;0.60;99.90;;;;;;5094664;28;20020;-72
2022/04/11 02:20:08;;;;;;;16.05;9.52;;;0.60;99.90;;;;;;5094580;28;20023;-72
2022/04/11 02:22:55;;;;;;;13.00;9.55;;;0.70;99.90;;;;;;5094515;28;20115;-72
2022/04/11 02:25:24;;;;;;;16.00;9.77;;;0.70;99.90;;;;;;5076472;28;20539;-72
2022/04/11 02:27:50;;;;;;;16.15;10.23;;;0.80;99.90;;;;;;5094598;28;20020;-72
2022/04/11 02:30:17;;;;;;;14.05;9.77;;;0.80;99.90;;;;;;5076500;28;20027;-72
2022/04/11 02:32:44;;;;;;;14.25;9.77;;;0.70;99.90;;;;;;5094371;28;20081;-72
2022/04/11 02:35:10;;;;;;;13.38;9.18;;;0.70;99.90;;;;;;5094366;28;20020;-72
2022/04/11 02:37:36;;;;;;;13.80;9.73;;;0.60;99.90;;;;;;5076183;28;20119;-72
2022/04/11 02:40:03;;;;;;;15.05;9.00;;;0.70;99.90;;;;;;5094408;28;20059;-72
2022/04/11 02:42:29;;;;;;;12.95;8.93;;;0.70;99.90;;;;;;5093969;28;20089;-72
2022/04/11 02:44:55;;;;;;;16.38;10.40;;;0.70;99.90;;;;;;5094152;28;20024;-72
2022/04/11 02:47:21;;;;;;;13.93;9.15;;;0.70;99.90;;;;;;5094107;28;20493;-72
2022/04/11 02:49:47;;;;;;;13.15;9.88;;;0.70;99.90;;;;;;5094154;28;20390;-72
2022/04/11 02:52:13;;;;;;;14.20;9.65;;;0.80;99.90;;;;;;5076011;28;20028;-72
2022/04/11 02:54:40;;;;;;;13.25;9.27;;;0.80;99.90;;;;;;5075919;28;20036;-72
2022/04/11 02:57:06;;;;;;;12.05;8.98;;;0.80;99.90;;;;;;5075795;28;20024;-73
2022/04/11 02:59:33;;;;;;;17.48;9.68;;;0.80;99.90;;;;;;5075685;28;20114;-72
2022/04/11 03:01:59;;;;;;;13.50;9.02;;;0.80;99.90;;;;;;5093822;28;20103;-72
2022/04/11 03:04:26;;;;;;;12.45;8.60;;;0.80;99.90;;;;;;5093863;28;20028;-72
2022/04/11 03:06:52;;;;;;;12.32;8.93;;;0.80;99.90;;;;;;5075585;28;20017;-72
2022/04/11 03:09:18;;;;;;;14.27;9.15;;;0.80;99.90;;;;;;5093766;28;20044;-72
2022/04/11 03:11:43;;;;;;;21.40;9.32;;;0.80;99.90;;;;;;5093212;28;20063;-72
2022/04/11 03:14:08;;;;;;;13.38;8.18;;;0.90;99.90;;;;;;5075607;28;20027;-73
2022/04/11 03:16:34;;;;;;;11.98;8.35;;;0.90;99.90;;;;;;5093603;28;20028;-72
2022/04/11 03:19:00;;;;;;;11.02;7.95;;;0.90;99.90;;;;;;5093655;28;20111;-72
2022/04/11 03:21:26;;;;;;;13.73;8.18;;;0.90;99.90;;;;;;5093552;28;20056;-72
2022/04/11 03:23:51;;;;;;;12.13;8.10;;;0.90;99.90;;;;;;5075520;28;20017;-72
2022/04/11 03:26:17;;;;;;;10.60;7.28;;;0.90;99.90;;;;;;5093538;28;20496;-73
2022/04/11 03:28:42;;;;;;;10.88;7.63;;;0.90;99.90;;;;;;5093505;28;20024;-73
2022/04/11 03:31:08;;;;;;;9.85;7.32;;;0.90;99.90;;;;;;5093445;28;20020;-73
2022/04/11 03:33:33;;;;;;;10.63;7.60;;;0.90;99.90;;;;;;5075379;28;20028;-73
2022/04/11 03:35:59;;;;;;;10.35;7.03;;;0.90;99.90;;;;;;5093435;28;20024;-73
2022/04/11 03:38:24;;;;;;;10.35;7.72;;;0.90;99.90;;;;;;5075404;28;20032;-73
2022/04/11 03:40:50;;;;;;;14.68;7.75;;;0.90;99.90;;;;;;5093390;28;20020;-73
2022/04/11 03:43:15;;;;;;;9.02;6.60;;;0.90;99.90;;;;;;5092938;28;20086;-73
2022/04/11 03:45:41;;;;;;;10.38;6.82;;;0.90;99.90;;;;;;5058468;28;20020;-73
2022/04/11 03:48:06;;;;;;;9.70;7.20;;;0.80;99.90;;;;;;5093180;28;20021;-72
2022/04/11 03:50:32;;;;;;;11.07;7.35;;;0.80;99.90;;;;;;5093148;28;20032;-72
2022/04/11 03:52:57;;;;;;;10.63;7.28;;;0.80;99.90;;;;;;5093261;28;20486;-72
2022/04/11 03:55:23;;;;;;;9.48;7.43;;;0.70;99.90;;;;;;5075084;28;20028;-72
2022/04/11 03:57:49;;;;;;;9.15;6.68;;;0.70;99.90;;;;;;5075368;28;20028;-72
2022/04/11 04:00:16;;;;;;;9.57;7.10;;;0.70;99.90;;;;;;5093103;28;20107;-72
2022/04/11 04:02:42;;;;;;;8.50;6.72;;;0.60;99.90;;;;;;5093048;28;20020;-72
2022/04/11 04:05:08;;;;;;;13.43;7.18;;;0.60;99.90;;;;;;5093075;28;20028;-72
2022/04/11 04:07:36;;;;;;;10.02;7.10;;;0.50;99.90;;;;;;5074916;28;20028;-72
2022/04/11 04:10:03;;;;;;;11.95;6.60;;;0.50;99.90;;;;;;5074946;28;20050;-72
2022/04/11 04:12:28;;;;;;;8.55;7.07;;;0.40;99.90;;;;;;5093056;28;20028;-72
2022/04/11 04:14:54;;;;;;;9.52;7.45;;;0.40;99.90;;;;;;5075017;28;20039;-72
2022/04/11 04:17:20;;;;;;;11.82;8.05;;;0.40;99.90;;;;;;5093093;28;20074;-72
2022/04/11 04:19:45;;;;;;;13.55;8.50;;;0.40;99.90;;;;;;5075137;28;20032;-72
2022/04/11 04:22:11;;;;;;;12.93;7.30;;;0.40;99.90;;;;;;5074757;28;20558;-72
2022/04/11 04:24:36;;;;;;;11.55;7.88;;;0.30;99.90;;;;;;5094723;28;20020;-72
2022/04/11 04:27:04;;;;;;;10.93;7.90;;;0.30;99.90;;;;;;5096847;28;20024;-72
2022/04/11 04:29:29;;;;;;;11.35;8.05;;;0.30;99.90;;;;;;5078628;28;20017;-72
2022/04/11 04:31:55;;;;;;;9.20;7.38;;;0.20;99.90;;;;;;5061807;28;20423;-72
2022/04/11 04:34:21;;;;;;;9.50;6.65;;;0.20;99.90;;;;;;5078677;28;20443;-72
2022/04/11 04:36:47;;;;;;;11.32;7.60;;;0.20;99.90;;;;;;5096758;28;20049;-72
2022/04/11 04:39:12;;;;;;;10.88;7.45;;;0.20;99.90;;;;;;5096605;28;20024;-72
2022/04/11 04:41:38;;;;;;;12.65;7.90;;;0.20;99.90;;;;;;5078087;28;20224;-72
2022/04/11 04:44:06;;;;;;;12.73;7.65;;;0.20;99.90;;;;;;5078269;28;20028;-72
2022/04/11 04:46:33;;;;;;;12.05;7.60;;;0.30;99.90;;;;;;5096377;28;20020;-72
2022/04/11 04:48:58;;;;;;;9.65;7.60;;;0.30;99.90;;;;;;5078156;28;20130;-72
2022/04/11 04:51:24;;;;;;;14.20;8.93;;;0.30;99.90;;;;;;5078181;28;20107;-72
2022/04/11 04:53:49;;;;;;;9.65;7.93;;;0.40;99.90;;;;;;5078267;28;20017;-72
2022/04/11 04:56:15;;;;;;;14.43;8.70;;;0.50;99.90;;;;;;5096178;28;20024;-72
2022/04/11 04:58:40;;;;;;;9.90;8.00;;;0.60;99.90;;;;;;5096216;28;20035;-72
2022/04/11 05:01:06;;;;;;;12.48;8.07;;;0.60;99.90;;;;;;5096120;28;20024;-73
2022/04/11 05:03:32;;;;;;;14.82;8.52;;;0.80;99.90;;;;;;5077821;28;20475;-73
2022/04/11 05:05:57;;;;;;;13.60;8.07;;;0.90;99.90;;;;;;5096146;28;20053;-72
2022/04/11 05:08:23;;;;;;;11.90;7.68;;;1.00;99.90;;;;;;5096002;28;20465;-73
2022/04/11 05:10:48;;;;;;;11.82;7.63;;;1.10;99.90;;;;;;5077854;28;20028;-73
2022/04/11 05:13:13;;;;;;;13.70;7.10;;;1.20;99.90;;;;;;5077846;28;20032;-73
2022/04/11 05:15:42;;;;;;;11.57;7.47;;;1.30;99.90;;;;;;5095913;28;20418;-73
2022/04/11 05:18:08;;;;;;;10.18;7.22;;;1.50;99.90;;;;;;5061369;28;20024;-73
2022/04/11 05:20:34;;;;;;;10.52;6.38;;;1.60;99.90;;;;;;5077946;28;20031;-73
2022/04/11 05:23:00;;;;;;;10.98;6.97;;;1.80;99.90;;;;;;5095703;28;20027;-73
2022/04/11 05:25:25;;;;;;;8.43;5.85;;;2.00;99.90;;;;;;5095665;28;20465;-73
2022/04/11 05:27:52;;;;;;;13.85;7.43;;;2.20;99.90;;;;;;5077658;28;20028;-73
2022/04/11 05:30:18;;;;;;;9.75;6.20;;;2.60;99.90;;;;;;5095591;28;20024;-73
2022/04/11 05:32:43;;;;;;;10.77;6.22;;;2.90;99.90;;;;;;5095584;28;20118;-73
2022/04/11 05:35:09;;;;;;;8.65;5.22;;;3.30;99.90;;;;;;5076962;28;20480;-73
2022/04/11 05:37:35;;;;;;;8.20;5.43;;;3.50;99.90;;;;;;5095510;28;20028;-73
2022/04/11 05:40:01;;;;;;;7.97;5.18;;;3.70;99.90;;;;;;5077411;28;20024;-74
2022/04/11 05:42:26;;;;;;;10.07;5.57;;;4.00;99.90;;;;;;5095186;28;20043;-73
2022/04/11 05:44:52;;;;;;;11.25;5.53;;;4.20;99.90;;;;;;5095269;28;20058;-73
2022/04/11 05:47:17;;;;;;;8.20;4.80;;;4.50;99.90;;;;;;5095370;28;20489;-74
2022/04/11 05:49:43;;;;;;;8.70;4.85;;;5.10;99.90;;;;;;5095260;28;20031;-73
2022/04/11 05:52:08;;;;;;;9.13;4.57;;;5.90;99.90;;;;;;5095193;28;20039;-74
2022/04/11 05:54:38;;;;;;;5.65;4.63;;;7.20;99.90;;;;;;5095055;28;20032;-74
2022/04/11 05:57:04;;;;;;;7.72;4.20;;;8.40;99.90;;;;;;5093247;28;20034;-73
2022/04/11 05:59:29;;;;;;;7.10;3.90;;;9.40;99.90;;;;;;5094383;28;20123;-74
2022/04/11 06:01:55;;;;;;;5.78;4.25;;;9.30;99.90;;;;;;5076061;28;20039;-74
2022/04/11 06:04:20;;;;;;;9.95;4.20;;;8.50;99.90;;;;;;5094692;28;20424;-74
2022/04/11 06:06:46;;;;;;;5.43;3.78;;;8.40;99.90;;;;;;5094815;28;20020;-74
2022/04/11 06:09:11;;;;;;;6.65;3.75;;;8.80;99.90;;;;;;5094485;28;20032;-75
2022/04/11 06:11:37;;;;;;;4.55;3.45;;;9.50;99.90;;;;;;5059562;28;20552;-74
2022/04/11 06:14:02;;;;;;;7.70;3.88;;;10.30;99.90;;;;;;5091591;28;20076;-72
2022/04/11 06:16:28;;;;;;;10.35;4.10;;;11.30;99.90;;;;;;5073123;28;20024;-72
2022/04/11 06:18:54;;;;;;;7.50;3.13;;;11.50;99.90;;;;;;5075488;28;20024;-73
2022/04/11 06:21:19;;;;;;;6.55;3.58;;;11.90;99.40;;;;;;5074965;28;20039;-73
2022/04/11 06:23:45;;;;;;;7.15;4.25;;;12.20;96.80;;;;;;5093086;28;20024;-72
2022/04/11 06:26:10;;;;;;;5.70;3.70;;;12.70;94.10;;;;;;5055643;28;20035;-72
2022/04/11 06:28:36;;;;;;;5.65;3.72;;;12.90;91.00;;;;;;5092827;28;20028;-73
2022/04/11 06:31:01;;;;;;;8.05;3.78;;;13.10;90.90;;;;;;5054670;28;20032;-72
2022/04/11 06:33:27;;;;;;;6.82;3.80;;;12.50;92.30;;;;;;5058792;28;20497;-73
2022/04/11 06:35:53;;;;;;;7.32;3.63;;;11.40;95.50;;;;;;5093532;28;20543;-72
2022/04/11 06:38:18;;;;;;;12.25;4.07;;;11.10;95.80;;;;;;5093767;28;20077;-72
2022/04/11 06:40:44;;;;;;;7.47;3.88;;;11.00;98.30;;;;;;5073682;28;20028;-71
2022/04/11 06:43:09;;;;;;;7.18;4.15;;;10.80;97.80;;;;;;5071950;28;20394;-72
2022/04/11 06:45:35;;;;;;;9.05;4.00;;;10.60;99.90;;;;;;5091006;28;20025;-73
2022/04/11 06:48:00;;;;;;;8.63;4.57;;;10.60;99.60;;;;;;5071729;28;20419;-71
2022/04/11 06:50:26;;;;;;;10.23;4.95;;;10.20;99.90;;;;;;5092677;28;20070;-73
2022/04/11 06:52:51;;;;;;;6.47;4.35;;;10.30;99.90;;;;;;5092515;28;20135;-73
2022/04/11 06:55:17;;;;;;;6.95;4.40;;;10.50;99.90;;;;;;5078632;28;20027;-73
2022/04/11 06:57:42;;;;;;;6.47;4.35;;;10.50;99.90;;;;;;5093773;28;20028;-72
2022/04/11 07:00:08;;;;;;;7.03;4.35;;;10.70;99.90;;;;;;5073990;28;20115;-74
2022/04/11 07:02:33;;;;;;;10.65;4.85;;;10.90;99.90;;;;;;5093113;28;20056;-72
2022/04/11 07:04:59;;;;;;;8.30;4.47;;;11.60;99.00;;;;;;5080776;28;20385;-73
2022/04/11 07:07:24;;;;;;;7.03;4.50;;;11.50;99.90;;;;;;5093644;28;20024;-73
2022/04/11 07:09:50;;;;;;;5.57;4.65;;;11.90;99.40;;;;;;5074976;28;20374;-74
2022/04/11 07:12:15;;;;;;;13.07;4.22;;;11.70;99.90;;;;;;5093658;28;20069;-73
2022/04/11 07:14:41;;;;;;;8.05;3.78;;;12.20;97.90;;;;;;5093002;28;20032;-73
2022/04/11 07:17:06;;;;;;;7.25;4.00;;;12.70;97.70;;;;;;5075109;28;20441;-73
2022/04/11 07:19:32;;;;;;;6.45;3.70;;;13.50;95.70;;;;;;5075623;28;20140;-73
2022/04/11 07:21:57;;;;;;;3.50;3.08;;;15.10;90.40;;;;;;5074932;28;20489;-73
2022/04/11 07:24:23;;;;;;;6.50;3.10;;;15.20;80.70;;;;;;5075426;28;20023;-74
2022/04/11 07:26:49;;;;;;;5.38;2.97;;;15.00;82.10;;;;;;5093086;28;20028;-74
2022/04/11 07:29:14;;;;;;;4.50;3.00;;;14.80;78.30;;;;;;5058655;28;20032;-74
2022/04/11 07:31:40;;;;;;;7.45;3.17;;;14.80;78.80;;;;;;5092958;28;20049;-73
2022/04/11 07:34:05;;;;;;;6.63;3.22;;;14.10;80.00;;;;;;5093249;28;20028;-73
2022/04/11 07:36:31;;;;;;;8.55;3.35;;;14.20;79.10;;;;;;5075115;28;20063;-73
2022/04/11 07:38:57;;;;;;;6.50;3.30;;;13.20;83.60;;;;;;5093276;28;20068;-73
2022/04/11 07:41:23;;;;;;;8.35;3.58;;;13.10;85.80;;;;;;5057871;28;20509;-73
2022/04/11 07:43:50;;;;;;;10.88;3.63;;;13.00;85.90;;;;;;5092784;28;20020;-73
2022/04/11 07:46:15;;;;;;;4.95;3.42;;;13.40;87.80;;;;;;5093071;28;20020;-73
2022/04/11 07:48:41;;;;;;;6.20;3.55;;;13.70;85.10;;;;;;5092471;28;20587;-74
2022/04/11 07:51:07;;;;;;;7.10;3.35;;;14.40;82.10;;;;;;5075145;28;20058;-73
2022/04/11 07:53:32;;;;;;;5.55;3.30;;;14.80;81.10;;;;;;5074950;28;20036;-73
2022/04/11 07:55:58;;;;;;;4.22;3.63;;;15.50;79.00;;;;;;5058511;28;20031;-74
2022/04/11 07:58:23;;;;;;;7.45;3.47;;;16.20;74.10;;;;;;5094503;28;20039;-74
2022/04/11 08:00:51;;;;;;;9.32;3.58;;;16.50;73.40;;;;;;5097294;28;20482;-73
2022/04/11 08:03:18;;;;;;;5.53;3.42;;;16.40;72.10;;;;;;5096911;28;20501;-74
2022/04/11 08:05:44;;;;;;;8.02;3.50;;;16.70;69.20;;;;;;5097220;28;20386;-73
2022/04/11 08:08:09;;;;;;;3.92;3.25;;;16.80;69.30;;;;;;5078351;28;20020;-74
2022/04/11 08:10:35;;;;;;;8.32;3.50;;;18.10;65.00;;;;;;5078795;28;20040;-74
2022/04/11 08:13:01;;;;;;;4.60;2.85;;;17.60;61.70;;;;;;5096746;28;20119;-74
2022/04/11 08:15:29;;;;;;;4.45;3.10;;;17.80;60.50;;;;;;5096656;28;20050;-73
2022/04/11 08:17:56;;;;;;;7.85;3.38;;;17.70;59.10;;;;;;5061797;28;20035;-73
2022/04/11 08:20:23;;;;;;;10.73;3.42;;;17.50;58.70;;;;;;5078697;28;20083;-74
2022/04/11 08:22:49;;;;;;;4.45;3.17;;;17.10;59.20;;;;;;5078943;28;20057;-74
2022/04/11 08:25:14;;;;;;;4.68;2.85;;;17.80;57.60;;;;;;5061640;28;20029;-74
2022/04/11 08:27:41;;;;;;;6.47;3.08;;;17.60;58.40;;;;;;5078306;28;20066;-74
2022/04/11 08:30:10;;;;;;;5.40;3.45;;;16.80;58.50;;;;;;5078453;28;20032;-74
2022/04/11 08:32:46;;;;;;;6.00;2.78;;;17.00;59.50;;;;;;5096702;28;20031;-74
2022/04/11 08:35:12;;;;;;;5.78;3.47;;;17.10;58.90;;;;;;5096670;28;20027;-74
2022/04/11 08:37:40;;;;;;;8.40;3.17;;;17.30;59.00;;;;;;5061432;28;20024;-74
2022/04/11 08:40:10;;;;;;;6.80;3.05;;;17.70;57.80;;;;;;5078602;28;20028;-74
2022/04/11 08:42:38;;;;;;;4.13;3.13;;;17.80;55.80;;;;;;5058533;28;20047;-74
2022/04/11 08:45:04;;;;;;;7.35;3.30;;;18.30;56.80;;;;;;5087006;28;20073;-74
2022/04/11 08:47:30;;;;;;;6.35;3.30;;;18.30;55.20;;;;;;5095781;28;20020;-74
2022/04/11 08:49:55;;;;;;;6.65;3.28;;;18.20;53.20;;;;;;5095246;28;20024;-74
2022/04/11 08:52:21;;;;;;;6.60;3.17;;;18.40;53.30;;;;;;5096419;28;20024;-74
2022/04/11 08:54:47;;;;;;;6.22;3.08;;;18.70;52.30;;;;;;5096841;28;20020;-74
2022/04/11 08:57:13;;;;;;;4.30;2.83;;;18.20;54.60;;;;;;5079012;28;20067;-74
2022/04/11 08:59:38;;;;;;;8.73;2.95;;;19.00;51.80;;;;;;5096990;28;20032;-74
2022/04/11 09:02:11;;;;;;;5.55;3.20;;;19.40;51.20;;;;;;5096498;28;20138;-74
2022/04/11 09:04:54;;;;;;;6.15;3.05;;;19.70;49.60;;;;;;5096838;28;20462;-75
2022/04/11 09:07:20;;;;;;;7.07;3.22;;;18.70;50.80;;;;;;5079345;28;20024;-73
2022/04/11 09:09:47;;;;;;;6.18;3.22;;;18.90;49.80;;;;;;5077705;28;20028;-74
2022/04/11 09:12:14;;;;;;;6.90;3.17;;;18.70;51.00;;;;;;5096065;28;20105;-75
2022/04/11 09:14:41;;;;;;;5.20;3.55;;;19.50;50.00;;;;;;5077745;28;20035;-74
2022/04/11 09:17:09;;;;;;;5.25;3.28;;;19.00;48.10;;;;;;5095649;28;20024;-74
2022/04/11 09:19:35;;;;;;;4.03;2.90;;;18.80;48.70;;;;;;5096128;28;20054;-74
2022/04/11 09:22:02;;;;;;;7.72;3.58;;;18.30;49.10;;;;;;5061258;28;20144;-74
2022/04/11 09:24:30;;;;;;;5.35;4.03;;;18.70;48.30;;;;;;5077952;28;20012;-75
2022/04/11 09:26:56;;;;;;;5.20;3.70;;;18.10;49.20;;;;;;5096141;28;20085;-74
2022/04/11 09:29:23;;;;;;;5.93;4.18;;;17.70;49.70;;;;;;5077420;28;20020;-74
2022/04/11 09:31:50;;;;;;;7.03;4.40;;;18.00;48.00;;;;;;5095747;28;20534;-74
2022/04/11 09:34:25;;;;;;;6.93;4.22;;;17.20;49.90;;;;;;5077245;28;20038;-75
2022/04/11 09:37:01;;;;;;;7.07;4.57;;;17.10;50.10;;;;;;5061017;28;20079;-75
2022/04/11 09:39:30;;;;;;;8.73;4.53;;;17.50;48.80;;;;;;5095456;28;20020;-74
2022/04/11 09:41:57;;;;;;;5.22;3.55;;;18.60;47.80;;;;;;5095268;28;20123;-74
2022/04/11 09:44:29;;;;;;;6.57;3.90;;;18.30;49.10;;;;;;5077028;28;20027;-75
2022/04/11 09:47:00;;;;;;;7.07;4.40;;;18.20;49.30;;;;;;5060921;28;20079;-75
2022/04/11 09:49:26;;;;;;;7.43;4.50;;;18.40;46.80;;;;;;5060491;28;20492;-74
2022/04/11 09:52:11;;;;;;;7.25;4.40;;;18.50;46.30;;;;;;5044316;28;20123;-75
2022/04/11 09:54:42;;;;;;;10.65;4.53;;;19.20;45.30;;;;;;5061088;28;20030;-75
2022/04/11 09:57:09;;;;;;;6.68;4.18;;;19.00;47.10;;;;;;5095828;28;20500;-75
2022/04/11 09:59:36;;;;;;;8.52;4.28;;;18.20;47.50;;;;;;5095368;28;20541;-75
2022/04/11 10:02:02;;;;;;;9.82;4.88;;;17.80;50.30;;;;;;5077508;28;20424;-75
2022/04/11 10:04:29;;;;;;;9.00;4.93;;;17.50;48.50;;;;;;5077083;28;20535;-75
2022/04/11 10:06:55;;;;;;;7.40;4.45;;;17.40;48.70;;;;;;5095168;28;20055;-75
2022/04/11 10:09:23;;;;;;;7.20;5.07;;;16.30;48.20;;;;;;5077163;28;20109;-75
2022/04/11 10:11:51;;;;;;;6.47;4.70;;;16.40;49.20;;;;;;5060277;28;20497;-75
2022/04/11 10:14:23;;;;;;;7.15;4.38;;;16.30;48.30;;;;;;5076601;28;20390;-74
2022/04/11 10:16:52;;;;;;;7.47;4.38;;;16.80;49.70;;;;;;5094731;28;20028;-75
2022/04/11 10:19:22;;;;;;;5.30;4.35;;;17.80;47.10;;;;;;5094824;28;20031;-75
2022/04/11 10:21:49;;;;;;;4.85;4.07;;;18.60;45.30;;;;;;5075575;28;20112;-75
2022/04/11 10:24:33;;;;;;;7.85;4.30;;;19.00;43.20;;;;;;5076491;28;20032;-75
2022/04/11 10:27:14;;;;;;;6.05;4.35;;;18.90;43.60;;;;;;5076683;28;20016;-75
2022/04/11 10:29:40;;;;;;;6.40;4.18;;;19.10;45.20;;;;;;5059945;28;20024;-75
2022/04/11 10:32:12;;;;;;;4.82;3.47;;;19.00;43.90;;;;;;5094993;28;20065;-75
2022/04/11 10:35:02;;;;;;;6.72;4.15;;;19.30;43.50;;;;;;5108719;28;20069;-75
2022/04/11 10:37:48;;;;;;;7.43;4.00;;;19.00;43.80;;;;;;5095301;28;20045;-75
2022/04/11 10:43:08;;;;;;;6.18;4.13;;;18.80;44.70;;;;;;5104963;27;20439;-71
2022/04/11 10:45:40;;;;;;;6.35;4.13;;;18.40;43.80;;;;;;5093068;28;20051;-71
2022/04/11 10:48:07;;;;;;;6.82;4.00;;;18.50;44.20;;;;;;5088539;28;20054;-71
2022/04/11 10:50:42;;;;;;;8.45;4.45;;;18.20;44.10;;;;;;5088361;28;20025;-72
2022/04/11 10:53:13;;;;;;;7.00;3.97;;;17.70;45.20;;;;;;5089578;28;20021;-72
2022/04/11 10:56:02;;;;;;;7.97;4.22;;;17.90;46.50;;;;;;5088606;28;20402;-73
2022/04/11 10:58:49;;;;;;;5.90;3.97;;;17.70;44.20;;;;;;5088686;28;20124;-70
2022/04/11 11:01:35;;;;;;;4.85;3.53;;;16.90;48.30;;;;;;5089872;28;20025;-70
2022/04/11 11:04:17;;;;;;;7.18;3.95;;;17.50;46.80;;;;;;5087180;28;20039;-71
2022/04/11 11:06:42;;;;;;;4.55;3.83;;;16.40;47.00;;;;;;5087530;28;20020;-73
2022/04/11 11:09:16;;;;;;;6.43;4.15;;;16.30;47.90;;;;;;5088981;28;20471;-73
2022/04/11 11:11:42;;;;;;;5.40;3.70;;;16.20;48.20;;;;;;5089097;28;20085;-73
2022/04/11 11:14:43;;;;;;;7.45;4.72;;;16.60;50.00;;;;;;5089186;28;20035;-74
2022/04/11 11:17:10;;;;;;;7.15;3.72;;;16.40;47.30;;;;;;5089514;28;20024;-74
2022/04/11 11:20:13;;;;;;;7.07;4.10;;;16.90;50.10;;;;;;5088743;28;20149;-73
2022/04/11 11:23:16;;;;;;;6.97;4.43;;;16.20;47.50;;;;;;5089437;28;20021;-72
2022/04/11 11:25:41;;;;;;;6.82;4.53;;;15.80;49.80;;;;;;5089797;28;20122;-73
2022/04/11 11:28:10;;;;;;;8.32;4.45;;;15.80;49.30;;;;;;5101704;28;20112;-73
2022/04/11 11:30:37;;;;;;;9.02;4.80;;;15.70;48.80;;;;;;5077422;28;20474;-73
2022/04/11 11:33:02;;;;;;;9.65;4.85;;;15.60;50.30;;;;;;5088480;28;20024;-72
2022/04/11 11:35:29;;;;;;;10.60;4.78;;;15.80;50.40;;;;;;5089167;28;20024;-72
2022/04/11 11:38:09;;;;;;;6.43;4.05;;;15.80;50.10;;;;;;5086641;28;20035;-71
2022/04/11 11:40:41;;;;;;;7.95;4.72;;;15.70;52.00;;;;;;5104565;28;20081;-73
2022/04/11 11:43:12;;;;;;;7.15;4.85;;;15.80;48.90;;;;;;5087711;28;20024;-72
2022/04/11 11:45:38;;;;;;;9.65;5.45;;;15.90;49.30;;;;;;5087367;28;20233;-73
2022/04/11 11:48:25;;;;;;;8.27;4.63;;;15.90;50.30;;;;;;5088152;28;20017;-72
2022/04/11 11:50:52;;;;;;;7.13;4.68;;;15.80;51.00;;;;;;5088645;28;20028;-72
2022/04/11 11:53:18;;;;;;;6.32;4.90;;;16.00;50.60;;;;;;5080264;28;20210;-74
2022/04/11 11:55:59;;;;;;;7.38;5.05;;;16.10;50.80;;;;;;5073223;28;20025;-73
2022/04/11 11:58:36;;;;;;;6.57;4.60;;;16.10;51.30;;;;;;5074264;28;20016;-73
2022/04/11 12:01:05;;;;;;;7.43;4.97;;;16.40;50.20;;;;;;5074340;28;20036;-72
2022/04/11 12:06:25;;;;;;;9.98;4.57;;;16.00;51.70;;;;;;5075217;28;20107;-74
2022/04/11 12:08:56;;;;;;;8.50;4.72;;;15.90;52.40;;;;;;5075480;28;20025;-73
2022/04/11 12:11:24;;;;;;;7.30;4.82;;;16.00;50.90;;;;;;5075297;28;20122;-73
2022/04/11 12:13:57;;;;;;;7.53;4.68;;;16.30;50.70;;;;;;5075407;28;20052;-76
2022/04/11 12:16:22;;;;;;;7.20;4.65;;;16.20;51.60;;;;;;5075502;28;20032;-73
2022/04/11 12:19:05;;;;;;;6.65;4.93;;;16.00;51.60;;;;;;5075345;28;20483;-73
2022/04/11 12:21:39;;;;;;;5.57;4.43;;;16.20;51.20;;;;;;5075167;28;20029;-72
2022/04/11 12:24:07;;;;;;;9.57;5.15;;;16.10;51.00;;;;;;5074680;28;20016;-73
2022/04/11 12:26:39;;;;;;;6.80;5.28;;;15.90;51.50;;;;;;5075129;28;20039;-73
2022/04/11 12:29:14;;;;;;;7.22;5.15;;;15.60;52.20;;;;;;5076138;28;20047;-72
2022/04/11 12:31:57;;;;;;;7.35;4.55;;;16.00;52.50;;;;;;5073786;28;20060;-72
2022/04/11 12:34:33;;;;;;;7.47;4.37;;;15.90;51.70;;;;;;5075258;28;20056;-73
2022/04/11 12:37:02;;;;;;;9.23;5.47;;;15.90;51.50;;;;;;5057382;28;20115;-73
2022/04/11 12:39:29;;;;;;;6.38;5.07;;;15.90;51.90;;;;;;5075012;28;20402;-74
2022/04/11 12:41:55;;;;;;;6.78;4.75;;;15.50;52.70;;;;;;5073562;28;20052;-75
2022/04/11 12:44:33;;;;;;;10.05;5.18;;;15.30;53.80;;;;;;5074928;28;20017;-73
2022/04/11 12:49:47;;;;;;;7.22;4.90;;;15.80;53.10;;;;;;5090623;27;20407;-72
2022/04/11 12:52:15;;;;;;;8.20;4.95;;;15.90;52.30;;;;;;5089537;28;20025;-73
2022/04/11 12:54:46;;;;;;;7.85;4.93;;;16.00;51.20;;;;;;5102157;28;20035;-73
2022/04/11 12:57:21;;;;;;;9.68;5.10;;;16.30;53.70;;;;;;5089178;28;20035;-74
2022/04/11 12:59:47;;;;;;;7.57;5.07;;;16.40;54.30;;;;;;5089129;28;20066;-73